createdAt,value
2018-07-21T00:00:22.636Z,1005.6
2018-07-21T00:01:31.274Z,1005.58
2018-07-21T00:02:39.927Z,1005.58
2018-07-21T00:03:48.571Z,1005.56
2018-07-21T00:04:57.226Z,1005.58
2018-07-21T00:06:05.872Z,1005.58
2018-07-21T00:07:14.525Z,1005.58
2018-07-21T00:08:23.165Z,1005.54
2018-07-21T00:09:31.823Z,1005.56
2018-07-21T00:10:40.470Z,1005.54
2018-07-21T00:11:49.123Z,1005.58
2018-07-21T00:12:57.765Z,1005.57
2018-07-21T00:14:06.422Z,1005.56
2018-07-21T00:15:15.075Z,1005.55
2018-07-21T00:16:23.725Z,1005.56
2018-07-21T00:17:32.640Z,1005.53
2018-07-21T00:18:41.278Z,1005.52
2018-07-21T00:19:49.931Z,1005.49
2018-07-21T00:20:58.576Z,1005.54
2018-07-21T00:22:07.236Z,1005.5
2018-07-21T00:23:15.879Z,1005.47
2018-07-21T00:24:24.526Z,1005.45
2018-07-21T00:25:33.178Z,1005.44
2018-07-21T00:26:41.830Z,1005.41
2018-07-21T00:27:50.744Z,1005.39
2018-07-21T00:28:59.393Z,1005.39
2018-07-21T00:30:08.045Z,1005.37
2018-07-21T00:31:16.697Z,1005.35
2018-07-21T00:32:25.346Z,1005.3
2018-07-21T00:33:33.992Z,1005.29
2018-07-21T00:34:42.638Z,1005.28
2018-07-21T00:35:51.292Z,1005.26
2018-07-21T00:36:59.945Z,1005.29
2018-07-21T00:38:08.597Z,1005.24
2018-07-21T00:39:17.246Z,1005.3
2018-07-21T00:40:25.891Z,1005.28
2018-07-21T00:41:34.544Z,1005.33
2018-07-21T00:42:43.192Z,1005.31
2018-07-21T00:43:51.839Z,1005.32
2018-07-21T00:45:00.483Z,1005.3
2018-07-21T00:46:09.135Z,1005.29
2018-07-21T00:47:17.781Z,1005.32
2018-07-21T00:48:26.432Z,1005.28
2018-07-21T00:49:35.078Z,1005.3
2018-07-21T00:50:43.727Z,1005.28
2018-07-21T00:51:52.375Z,1005.25
2018-07-21T00:53:01.021Z,1005.26
2018-07-21T00:54:10.199Z,1005.28
2018-07-21T00:55:18.844Z,1005.28
2018-07-21T00:56:27.491Z,1005.29
2018-07-21T00:57:36.146Z,1005.24
2018-07-21T00:58:44.799Z,1005.18
2018-07-21T00:59:53.455Z,1005.17
2018-07-21T01:01:02.368Z,1005.15
2018-07-21T01:02:11.278Z,1005.14
2018-07-21T01:03:19.931Z,1005.14
2018-07-21T01:04:28.574Z,1005.15
2018-07-21T01:05:37.226Z,1005.12
2018-07-21T01:06:46.133Z,1005.12
2018-07-21T01:07:54.792Z,1005.13
2018-07-21T01:09:03.437Z,1005.12
2018-07-21T01:10:12.085Z,1005.11
2018-07-21T01:11:20.730Z,1005.14
2018-07-21T01:12:29.375Z,1005.11
2018-07-21T01:13:38.028Z,1005.08
2018-07-21T01:14:46.675Z,1005.06
2018-07-21T01:15:55.322Z,1005.05
2018-07-21T01:17:03.966Z,1005.05
2018-07-21T01:18:12.620Z,1005
2018-07-21T01:19:21.269Z,1004.98
2018-07-21T01:20:29.921Z,1004.96
2018-07-21T01:21:38.569Z,1004.95
2018-07-21T01:22:47.213Z,1004.97
2018-07-21T01:23:56.124Z,1004.95
2018-07-21T01:25:05.037Z,1004.94
2018-07-21T01:26:13.682Z,1004.92
2018-07-21T01:27:22.327Z,1004.94
2018-07-21T01:28:30.976Z,1004.91
2018-07-21T01:29:39.625Z,1004.96
2018-07-21T01:30:48.528Z,1004.96
2018-07-21T01:31:57.180Z,1004.98
2018-07-21T01:33:05.831Z,1004.98
2018-07-21T01:34:14.740Z,1005.04
2018-07-21T01:35:23.384Z,1005.01
2018-07-21T01:36:32.043Z,1005.05
2018-07-21T01:37:41.475Z,1005.07
2018-07-21T01:38:50.122Z,1005.09
2018-07-21T01:39:59.036Z,1005.11
2018-07-21T01:41:07.689Z,1005.14
2018-07-21T01:42:16.335Z,1005.14
2018-07-21T01:43:24.985Z,1005.21
2018-07-21T01:44:33.628Z,1005.22
2018-07-21T01:45:42.278Z,1005.25
2018-07-21T01:46:50.927Z,1005.31
2018-07-21T01:47:59.576Z,1005.36
2018-07-21T01:49:08.228Z,1005.36
2018-07-21T01:50:16.868Z,1005.39
2018-07-21T01:51:25.515Z,1005.42
2018-07-21T01:52:34.162Z,1005.45
2018-07-21T01:53:42.817Z,1005.44
2018-07-21T01:54:51.459Z,1005.45
2018-07-21T01:56:00.107Z,1005.47
2018-07-21T01:57:08.757Z,1005.48
2018-07-21T01:58:17.405Z,1005.51
2018-07-21T01:59:26.051Z,1005.47
2018-07-21T02:00:34.698Z,1005.5
2018-07-21T02:01:43.344Z,1005.49
2018-07-21T02:02:51.997Z,1005.52
2018-07-21T02:04:00.915Z,1005.54
2018-07-21T02:05:09.562Z,1005.55
2018-07-21T02:06:18.209Z,1005.53
2018-07-21T02:07:26.853Z,1005.51
2018-07-21T02:08:35.506Z,1005.55
2018-07-21T02:09:44.155Z,1005.54
2018-07-21T02:10:52.802Z,1005.55
2018-07-21T02:12:01.448Z,1005.56
2018-07-21T02:13:10.098Z,1005.58
2018-07-21T02:14:18.744Z,1005.58
2018-07-21T02:15:27.391Z,1005.54
2018-07-21T02:16:36.037Z,1005.52
2018-07-21T02:17:44.689Z,1005.52
2018-07-21T02:18:53.603Z,1005.48
2018-07-21T02:20:02.252Z,1005.49
2018-07-21T02:21:10.892Z,1005.49
2018-07-21T02:22:19.548Z,1005.47
2018-07-21T02:23:28.461Z,1005.44
2018-07-21T02:24:37.111Z,1005.41
2018-07-21T02:25:46.033Z,1005.4
2018-07-21T02:26:54.671Z,1005.42
2018-07-21T02:28:03.324Z,1005.38
2018-07-21T02:29:11.967Z,1005.38
2018-07-21T02:30:20.622Z,1005.37
2018-07-21T02:31:29.567Z,1005.35
2018-07-21T02:32:38.223Z,1005.36
2018-07-21T02:33:46.867Z,1005.33
2018-07-21T02:34:56.088Z,1005.31
2018-07-21T02:36:04.726Z,1005.32
2018-07-21T02:37:13.376Z,1005.32
2018-07-21T02:38:22.024Z,1005.32
2018-07-21T02:39:30.939Z,1005.31
2018-07-21T02:40:39.595Z,1005.3
2018-07-21T02:41:48.775Z,1005.27
2018-07-21T02:42:58.212Z,1005.33
2018-07-21T02:44:06.861Z,1005.33
2018-07-21T02:45:15.520Z,1005.29
2018-07-21T02:46:24.429Z,1005.27
2018-07-21T02:47:33.087Z,1005.26
2018-07-21T02:48:41.729Z,1005.23
2018-07-21T02:49:50.383Z,1005.18
2018-07-21T02:50:59.295Z,1005.17
2018-07-21T02:52:08.209Z,1005.18
2018-07-21T02:53:16.847Z,1005.14
2018-07-21T02:54:25.502Z,1005.13
2018-07-21T02:55:34.156Z,1005.1
2018-07-21T02:56:42.802Z,1005.1
2018-07-21T02:57:51.444Z,1005.1
2018-07-21T02:59:00.097Z,1005.09
2018-07-21T03:00:09.013Z,1005.1
2018-07-21T03:01:17.710Z,1005.11
2018-07-21T03:02:26.807Z,1005.1
2018-07-21T03:03:36.088Z,1005.07
2018-07-21T03:04:45.640Z,1005.09
2018-07-21T03:05:54.286Z,1005.09
2018-07-21T03:07:02.948Z,1005.07
2018-07-21T03:08:11.587Z,1005.04
2018-07-21T03:09:20.244Z,1005.03
2018-07-21T03:10:29.151Z,1005.03
2018-07-21T03:11:37.809Z,1005.02
2018-07-21T03:12:46.452Z,1005
2018-07-21T03:13:55.106Z,1004.95
2018-07-21T03:15:04.283Z,1004.95
2018-07-21T03:16:12.945Z,1004.98
2018-07-21T03:17:21.863Z,1004.94
2018-07-21T03:18:30.509Z,1004.97
2018-07-21T03:19:39.687Z,1004.97
2018-07-21T03:20:48.337Z,1004.98
2018-07-21T03:21:57.266Z,1004.97
2018-07-21T03:23:06.219Z,1004.99
2018-07-21T03:24:14.835Z,1004.99
2018-07-21T03:25:23.752Z,1005.02
2018-07-21T03:26:32.410Z,1005
2018-07-21T03:27:41.063Z,1005.02
2018-07-21T03:28:49.978Z,1004.99
2018-07-21T03:29:58.620Z,1004.98
2018-07-21T03:31:07.278Z,1004.99
2018-07-21T03:32:15.937Z,1005.01
2018-07-21T03:33:24.586Z,1004.98
2018-07-21T03:34:33.230Z,1004.99
2018-07-21T03:35:41.879Z,1004.98
2018-07-21T03:36:50.530Z,1004.95
2018-07-21T03:37:59.180Z,1004.95
2018-07-21T03:39:07.828Z,1004.99
2018-07-21T03:40:16.734Z,1004.98
2018-07-21T03:41:25.653Z,1005
2018-07-21T03:42:34.566Z,1004.98
2018-07-21T03:43:43.750Z,1004.93
2018-07-21T03:44:52.394Z,1004.95
2018-07-21T03:46:01.044Z,1004.98
2018-07-21T03:47:09.694Z,1004.97
2018-07-21T03:48:18.344Z,1004.93
2018-07-21T03:49:26.987Z,1004.96
2018-07-21T03:50:35.901Z,1004.97
2018-07-21T03:51:44.547Z,1004.96
2018-07-21T03:52:53.198Z,1004.94
2018-07-21T03:54:02.106Z,1004.95
2018-07-21T03:55:10.788Z,1004.9
2018-07-21T03:56:20.023Z,1004.88
2018-07-21T03:57:28.668Z,1004.88
2018-07-21T03:58:37.320Z,1004.84
2018-07-21T03:59:45.970Z,1004.86
2018-07-21T04:00:54.882Z,1004.84
2018-07-21T04:02:03.528Z,1004.84
2018-07-21T04:03:12.179Z,1004.83
2018-07-21T04:04:21.094Z,1004.84
2018-07-21T04:05:29.742Z,1004.81
2018-07-21T04:06:38.387Z,1004.82
2018-07-21T04:07:47.039Z,1004.81
2018-07-21T04:08:55.725Z,1004.83
2018-07-21T04:10:04.335Z,1004.79
2018-07-21T04:11:12.982Z,1004.78
2018-07-21T04:12:21.631Z,1004.78
2018-07-21T04:13:30.279Z,1004.78
2018-07-21T04:14:38.929Z,1004.81
2018-07-21T04:15:47.579Z,1004.76
2018-07-21T04:16:56.221Z,1004.82
2018-07-21T04:18:04.871Z,1004.82
2018-07-21T04:19:13.516Z,1004.86
2018-07-21T04:20:22.173Z,1004.86
2018-07-21T04:21:30.814Z,1004.87
2018-07-21T04:22:39.733Z,1004.9
2018-07-21T04:23:48.382Z,1004.92
2018-07-21T04:24:57.038Z,1004.96
2018-07-21T04:26:05.679Z,1004.94
2018-07-21T04:27:14.874Z,1004.94
2018-07-21T04:28:23.527Z,1004.95
2018-07-21T04:29:32.183Z,1004.98
2018-07-21T04:30:40.830Z,1004.98
2018-07-21T04:31:49.472Z,1005
2018-07-21T04:32:58.382Z,1004.99
2018-07-21T04:34:07.293Z,1005.03
2018-07-21T04:35:15.948Z,1005.05
2018-07-21T04:36:24.593Z,1005.05
2018-07-21T04:37:33.512Z,1005.07
2018-07-21T04:38:42.153Z,1005.07
2018-07-21T04:39:50.809Z,1005.08
2018-07-21T04:40:59.455Z,1005.09
2018-07-21T04:42:08.110Z,1005.1
2018-07-21T04:43:17.021Z,1005.11
2018-07-21T04:44:25.939Z,1005.13
2018-07-21T04:45:34.584Z,1005.12
2018-07-21T04:46:43.236Z,1005.14
2018-07-21T04:47:52.137Z,1005.08
2018-07-21T04:49:00.787Z,1005.07
2018-07-21T04:50:09.443Z,1005.06
2018-07-21T04:51:18.090Z,1005.08
2018-07-21T04:52:27.003Z,1005.06
2018-07-21T04:53:35.643Z,1005.05
2018-07-21T04:54:44.297Z,1005.06
2018-07-21T04:55:52.940Z,1005.09
2018-07-21T04:57:01.598Z,1005.08
2018-07-21T04:58:10.239Z,1005.07
2018-07-21T04:59:18.892Z,1005.06
2018-07-21T05:00:27.535Z,1005.07
2018-07-21T05:01:36.455Z,1005.08
2018-07-21T05:02:45.098Z,1005.06
2018-07-21T05:03:53.744Z,1005.09
2018-07-21T05:05:02.651Z,1005.07
2018-07-21T05:06:11.309Z,1005.09
2018-07-21T05:07:19.969Z,1005.04
2018-07-21T05:08:28.896Z,1005.09
2018-07-21T05:09:37.541Z,1005.06
2018-07-21T05:10:46.186Z,1005.06
2018-07-21T05:11:54.843Z,1005.1
2018-07-21T05:13:03.756Z,1005.07
2018-07-21T05:14:12.409Z,1005.12
2018-07-21T05:15:21.049Z,1005.15
2018-07-21T05:16:29.966Z,1005.12
2018-07-21T05:17:38.620Z,1005.14
2018-07-21T05:18:47.525Z,1005.11
2018-07-21T05:19:56.491Z,1005.11
2018-07-21T05:21:05.418Z,1005.09
2018-07-21T05:22:14.067Z,1005.12
2018-07-21T05:23:22.720Z,1005.1
2018-07-21T05:24:31.372Z,1005.09
2018-07-21T05:25:40.021Z,1005.09
2018-07-21T05:26:48.930Z,1005.07
2018-07-21T05:27:57.576Z,1005.04
2018-07-21T05:29:06.487Z,1005.03
2018-07-21T05:30:15.667Z,1005.06
2018-07-21T05:31:24.311Z,1005.08
2018-07-21T05:32:32.964Z,1005.1
2018-07-21T05:33:41.600Z,1005.1
2018-07-21T05:34:50.256Z,1005.12
2018-07-21T05:35:58.899Z,1005.09
2018-07-21T05:37:07.556Z,1005.09
2018-07-21T05:38:16.194Z,1005.13
2018-07-21T05:39:24.855Z,1005.12
2018-07-21T05:40:33.765Z,1005.15
2018-07-21T05:41:42.418Z,1005.15
2018-07-21T05:42:51.061Z,1005.19
2018-07-21T05:43:59.711Z,1005.21
2018-07-21T05:45:08.382Z,1005.24
2018-07-21T05:46:17.014Z,1005.25
2018-07-21T05:47:25.925Z,1005.24
2018-07-21T05:48:34.564Z,1005.29
2018-07-21T05:49:43.481Z,1005.27
2018-07-21T05:50:52.125Z,1005.24
2018-07-21T05:52:00.783Z,1005.27
2018-07-21T05:53:09.713Z,1005.25
2018-07-21T05:54:18.340Z,1005.22
2018-07-21T05:55:26.985Z,1005.27
2018-07-21T05:56:35.643Z,1005.27
2018-07-21T05:57:44.282Z,1005.3
2018-07-21T05:58:52.934Z,1005.3
2018-07-21T06:00:01.582Z,1005.31
2018-07-21T06:01:10.241Z,1005.37
2018-07-21T06:02:19.146Z,1005.36
2018-07-21T06:03:28.052Z,1005.4
2018-07-21T06:04:36.695Z,1005.4
2018-07-21T06:05:45.345Z,1005.4
2018-07-21T06:06:54.264Z,1005.46
2018-07-21T06:08:03.172Z,1005.44
2018-07-21T06:09:11.822Z,1005.45
2018-07-21T06:10:20.462Z,1005.46
2018-07-21T06:11:29.120Z,1005.46
2018-07-21T06:12:37.764Z,1005.43
2018-07-21T06:13:46.416Z,1005.46
2018-07-21T06:14:55.058Z,1005.48
2018-07-21T06:16:03.713Z,1005.52
2018-07-21T06:17:12.625Z,1005.53
2018-07-21T06:18:21.273Z,1005.55
2018-07-21T06:19:30.222Z,1005.6
2018-07-21T06:20:38.840Z,1005.56
2018-07-21T06:21:47.489Z,1005.6
2018-07-21T06:22:56.140Z,1005.61
2018-07-21T06:24:04.790Z,1005.62
2018-07-21T06:25:13.476Z,1005.65
2018-07-21T06:26:22.616Z,1005.62
2018-07-21T06:27:31.538Z,1005.64
2018-07-21T06:28:40.191Z,1005.62
2018-07-21T06:29:48.836Z,1005.62
2018-07-21T06:30:57.486Z,1005.64
2018-07-21T06:32:06.136Z,1005.65
2018-07-21T06:33:15.047Z,1005.65
2018-07-21T06:34:23.691Z,1005.66
2018-07-21T06:35:32.376Z,1005.72
2018-07-21T06:36:40.988Z,1005.7
2018-07-21T06:37:49.643Z,1005.71
2018-07-21T06:38:58.290Z,1005.77
2018-07-21T06:40:06.939Z,1005.76
2018-07-21T06:41:15.585Z,1005.74
2018-07-21T06:42:24.231Z,1005.76
2018-07-21T06:43:32.883Z,1005.78
2018-07-21T06:44:41.532Z,1005.82
2018-07-21T06:45:50.182Z,1005.79
2018-07-21T06:46:58.835Z,1005.85
2018-07-21T06:48:07.484Z,1005.86
2018-07-21T06:49:16.132Z,1005.87
2018-07-21T06:50:25.045Z,1005.86
2018-07-21T06:51:33.690Z,1005.84
2018-07-21T06:52:42.342Z,1005.88
2018-07-21T06:53:51.255Z,1005.98
2018-07-21T06:54:59.916Z,1005.99
2018-07-21T06:56:08.824Z,1006.04
2018-07-21T06:57:17.478Z,1006.04
2018-07-21T06:58:26.128Z,1006.02
2018-07-21T06:59:34.777Z,1006.01
2018-07-21T07:00:43.429Z,1006.02
2018-07-21T07:01:52.072Z,1006.01
2018-07-21T07:03:00.727Z,1006.01
2018-07-21T07:04:09.373Z,1005.99
2018-07-21T07:05:18.027Z,1006.01
2018-07-21T07:06:26.672Z,1006.03
2018-07-21T07:07:35.326Z,1006.04
2018-07-21T07:08:43.976Z,1006.03
2018-07-21T07:09:52.627Z,1006.02
2018-07-21T07:11:01.267Z,1006.04
2018-07-21T07:12:09.918Z,1006.03
2018-07-21T07:13:18.570Z,1006.04
2018-07-21T07:14:27.214Z,1006.04
2018-07-21T07:15:35.864Z,1005.98
2018-07-21T07:16:44.519Z,1006
2018-07-21T07:17:53.180Z,1005.99
2018-07-21T07:19:01.831Z,1005.99
2018-07-21T07:20:10.472Z,1006.01
2018-07-21T07:21:19.127Z,1006
2018-07-21T07:22:27.777Z,1006.01
2018-07-21T07:23:36.434Z,1005.99
2018-07-21T07:24:45.350Z,1005.98
2018-07-21T07:25:53.997Z,1006.01
2018-07-21T07:27:02.644Z,1006.03
2018-07-21T07:28:11.308Z,1006.03
2018-07-21T07:29:19.948Z,1006.04
2018-07-21T07:30:28.599Z,1006.01
2018-07-21T07:31:37.247Z,1006.01
2018-07-21T07:32:45.904Z,1006
2018-07-21T07:33:54.551Z,1006.02
2018-07-21T07:35:03.247Z,1005.99
2018-07-21T07:36:12.230Z,1006.02
2018-07-21T07:37:20.841Z,1006.02
2018-07-21T07:38:29.499Z,1005.99
2018-07-21T07:39:38.146Z,1005.97
2018-07-21T07:40:46.800Z,1005.95
2018-07-21T07:41:55.445Z,1005.95
2018-07-21T07:43:04.103Z,1005.94
2018-07-21T07:44:12.743Z,1005.97
2018-07-21T07:45:21.673Z,1005.94
2018-07-21T07:46:30.312Z,1005.95
2018-07-21T07:47:38.975Z,1005.94
2018-07-21T07:48:47.883Z,1005.93
2018-07-21T07:49:56.536Z,1005.92
2018-07-21T07:51:05.181Z,1005.92
2018-07-21T07:52:14.095Z,1005.95
2018-07-21T07:53:22.772Z,1005.95
2018-07-21T07:54:31.401Z,1006
2018-07-21T07:55:40.054Z,1005.98
2018-07-21T07:56:48.694Z,1006
2018-07-21T07:57:57.352Z,1006.02
2018-07-21T07:59:06.520Z,1006.02
2018-07-21T08:00:15.181Z,1006.01
2018-07-21T08:01:23.822Z,1006
2018-07-21T08:02:32.480Z,1005.98
2018-07-21T08:03:41.126Z,1006.01
2018-07-21T08:04:49.785Z,1006.01
2018-07-21T08:05:58.471Z,1006.01
2018-07-21T08:07:07.080Z,1006.02
2018-07-21T08:08:15.736Z,1006.03
2018-07-21T08:09:24.389Z,1006.05
2018-07-21T08:10:33.299Z,1006.02
2018-07-21T08:11:41.944Z,1006.05
2018-07-21T08:12:50.595Z,1006.08
2018-07-21T08:13:59.244Z,1006.06
2018-07-21T08:15:08.186Z,1006.09
2018-07-21T08:16:16.836Z,1006.08
2018-07-21T08:17:25.491Z,1006.1
2018-07-21T08:18:34.399Z,1006.11
2018-07-21T08:19:43.055Z,1006.14
2018-07-21T08:20:51.705Z,1006.14
2018-07-21T08:22:00.359Z,1006.12
2018-07-21T08:23:09.002Z,1006.12
2018-07-21T08:24:17.659Z,1006.15
2018-07-21T08:25:26.306Z,1006.2
2018-07-21T08:26:35.223Z,1006.18
2018-07-21T08:27:43.871Z,1006.22
2018-07-21T08:28:52.523Z,1006.24
2018-07-21T08:30:01.176Z,1006.23
2018-07-21T08:31:09.826Z,1006.16
2018-07-21T08:32:18.479Z,1006.18
2018-07-21T08:33:27.130Z,1006.17
2018-07-21T08:34:35.824Z,1006.17
2018-07-21T08:35:44.795Z,1006.13
2018-07-21T08:36:53.449Z,1006.16
2018-07-21T08:38:02.103Z,1006.17
2018-07-21T08:39:10.754Z,1006.16
2018-07-21T08:40:19.406Z,1006.2
2018-07-21T08:41:28.060Z,1006.2
2018-07-21T08:42:36.711Z,1006.21
2018-07-21T08:43:45.636Z,1006.22
2018-07-21T08:44:54.283Z,1006.23
2018-07-21T08:46:02.940Z,1006.24
2018-07-21T08:47:11.853Z,1006.19
2018-07-21T08:48:20.511Z,1006.19
2018-07-21T08:49:29.426Z,1006.16
2018-07-21T08:50:38.080Z,1006.15
2018-07-21T08:51:47.003Z,1006.19
2018-07-21T08:52:55.648Z,1006.12
2018-07-21T08:54:04.297Z,1006.08
2018-07-21T08:55:13.209Z,1006.09
2018-07-21T08:56:21.866Z,1006.07
2018-07-21T08:57:30.530Z,1006.11
2018-07-21T08:58:39.443Z,1006.1
2018-07-21T08:59:48.091Z,1006.08
2018-07-21T09:00:57.016Z,1006.09
2018-07-21T09:02:05.664Z,1006.07
2018-07-21T09:03:14.319Z,1006.04
2018-07-21T09:04:22.972Z,1006.04
2018-07-21T09:05:31.626Z,1006.07
2018-07-21T09:06:40.278Z,1006.04
2018-07-21T09:07:48.950Z,1006.04
2018-07-21T09:08:57.648Z,1006.03
2018-07-21T09:10:06.836Z,1006
2018-07-21T09:11:16.038Z,1006.03
2018-07-21T09:12:24.692Z,1006.04
2018-07-21T09:13:33.340Z,1005.98
2018-07-21T09:14:41.992Z,1006.04
2018-07-21T09:15:50.645Z,1006
2018-07-21T09:16:59.303Z,1006
2018-07-21T09:18:07.949Z,1006.01
2018-07-21T09:19:16.603Z,1006.03
2018-07-21T09:20:25.254Z,1006.02
2018-07-21T09:21:33.970Z,1006.04
2018-07-21T09:22:42.561Z,1006.03
2018-07-21T09:23:51.214Z,1006.03
2018-07-21T09:24:59.867Z,1006.03
2018-07-21T09:26:08.786Z,1006.02
2018-07-21T09:27:17.441Z,1006.01
2018-07-21T09:28:26.087Z,1006.04
2018-07-21T09:29:34.739Z,1006.08
2018-07-21T09:30:43.395Z,1006.09
2018-07-21T09:31:52.053Z,1006.14
2018-07-21T09:33:00.698Z,1006.14
2018-07-21T09:34:09.357Z,1006.14
2018-07-21T09:35:18.340Z,1006.17
2018-07-21T09:36:26.995Z,1006.15
2018-07-21T09:37:35.644Z,1006.16
2018-07-21T09:38:44.296Z,1006.14
2018-07-21T09:39:53.468Z,1006.18
2018-07-21T09:41:02.125Z,1006.18
2018-07-21T09:42:10.777Z,1006.22
2018-07-21T09:43:19.428Z,1006.17
2018-07-21T09:44:28.079Z,1006.14
2018-07-21T09:45:36.731Z,1006.11
2018-07-21T09:46:45.387Z,1006.14
2018-07-21T09:47:54.045Z,1006.13
2018-07-21T09:49:02.718Z,1006.13
2018-07-21T09:50:11.347Z,1006.13
2018-07-21T09:51:20.003Z,1006.13
2018-07-21T09:52:28.660Z,1006.13
2018-07-21T09:53:37.309Z,1006.1
2018-07-21T09:54:45.957Z,1006.09
2018-07-21T09:55:54.735Z,1006.08
2018-07-21T09:57:03.268Z,1006.07
2018-07-21T09:58:11.922Z,1006.09
2018-07-21T09:59:20.568Z,1006.12
2018-07-21T10:00:29.227Z,1006.12
2018-07-21T10:01:38.182Z,1006.1
2018-07-21T10:02:46.801Z,1006.14
2018-07-21T10:03:55.456Z,1006.14
2018-07-21T10:05:04.105Z,1006.11
2018-07-21T10:06:12.760Z,1006.14
2018-07-21T10:07:21.412Z,1006.16
2018-07-21T10:08:30.333Z,1006.16
2018-07-21T10:09:38.983Z,1006.19
2018-07-21T10:10:47.638Z,1006.18
2018-07-21T10:11:56.286Z,1006.2
2018-07-21T10:13:04.953Z,1006.22
2018-07-21T10:14:13.859Z,1006.19
2018-07-21T10:15:22.537Z,1006.16
2018-07-21T10:16:31.164Z,1006.13
2018-07-21T10:17:39.834Z,1006.13
2018-07-21T10:18:48.486Z,1006.13
2018-07-21T10:19:57.133Z,1006.11
2018-07-21T10:21:05.785Z,1006.1
2018-07-21T10:22:14.746Z,1006.06
2018-07-21T10:23:23.365Z,1006.08
2018-07-21T10:24:32.278Z,1006.08
2018-07-21T10:25:40.935Z,1006.09
2018-07-21T10:26:49.579Z,1006.06
2018-07-21T10:27:58.242Z,1006.1
2018-07-21T10:29:06.891Z,1006.11
2018-07-21T10:30:15.591Z,1006.1
2018-07-21T10:31:24.198Z,1006.1
2018-07-21T10:32:32.861Z,1006.1
2018-07-21T10:33:41.611Z,1006.14
2018-07-21T10:34:50.166Z,1006.17
2018-07-21T10:35:58.918Z,1006.18
2018-07-21T10:37:07.471Z,1006.21
2018-07-21T10:38:16.129Z,1006.23
2018-07-21T10:39:24.800Z,1006.26
2018-07-21T10:40:33.495Z,1006.27
2018-07-21T10:41:42.087Z,1006.26
2018-07-21T10:42:50.741Z,1006.25
2018-07-21T10:43:59.389Z,1006.29
2018-07-21T10:45:08.058Z,1006.25
2018-07-21T10:46:16.697Z,1006.3
2018-07-21T10:47:25.358Z,1006.32
2018-07-21T10:48:34.006Z,1006.29
2018-07-21T10:49:42.672Z,1006.28
2018-07-21T10:50:51.640Z,1006.28
2018-07-21T10:52:00.239Z,1006.27
2018-07-21T10:53:08.892Z,1006.23
2018-07-21T10:54:17.555Z,1006.24
2018-07-21T10:55:26.206Z,1006.21
2018-07-21T10:56:34.856Z,1006.21
2018-07-21T10:57:43.507Z,1006.21
2018-07-21T10:58:52.158Z,1006.2
2018-07-21T11:00:00.830Z,1006.2
2018-07-21T11:01:09.492Z,1006.21
2018-07-21T11:02:18.140Z,1006.22
2018-07-21T11:03:26.783Z,1006.22
2018-07-21T11:04:35.445Z,1006.19
2018-07-21T11:05:44.095Z,1006.17
2018-07-21T11:06:52.754Z,1006.17
2018-07-21T11:08:01.452Z,1006.16
2018-07-21T11:09:10.419Z,1006.19
2018-07-21T11:10:19.328Z,1006.16
2018-07-21T11:11:27.986Z,1006.16
2018-07-21T11:12:36.635Z,1006.16
2018-07-21T11:13:45.292Z,1006.16
2018-07-21T11:14:53.945Z,1006.15
2018-07-21T11:16:02.876Z,1006.16
2018-07-21T11:17:11.532Z,1006.19
2018-07-21T11:18:20.182Z,1006.18
2018-07-21T11:19:28.835Z,1006.2
2018-07-21T11:20:37.513Z,1006.24
2018-07-21T11:21:46.417Z,1006.19
2018-07-21T11:22:55.619Z,1006.19
2018-07-21T11:24:04.274Z,1006.17
2018-07-21T11:25:12.925Z,1006.15
2018-07-21T11:26:21.584Z,1006.1
2018-07-21T11:27:30.502Z,1006.13
2018-07-21T11:28:39.155Z,1006.08
2018-07-21T11:29:47.814Z,1006.07
2018-07-21T11:30:56.466Z,1006.04
2018-07-21T11:32:05.120Z,1006.08
2018-07-21T11:33:13.776Z,1006.11
2018-07-21T11:34:22.429Z,1006.08
2018-07-21T11:35:31.266Z,1006.07
2018-07-21T11:36:39.750Z,1006.11
2018-07-21T11:37:48.667Z,1006.1
2018-07-21T11:38:57.337Z,1006.12
2018-07-21T11:40:06.252Z,1006.08
2018-07-21T11:41:14.909Z,1006.07
2018-07-21T11:42:23.561Z,1006.09
2018-07-21T11:43:32.215Z,1006.06
2018-07-21T11:44:40.865Z,1006.06
2018-07-21T11:45:49.791Z,1006.04
2018-07-21T11:46:58.455Z,1006.1
2018-07-21T11:48:07.375Z,1006.08
2018-07-21T11:49:16.027Z,1006.04
2018-07-21T11:50:24.690Z,1006.06
2018-07-21T11:51:33.337Z,1006.06
2018-07-21T11:52:41.995Z,1006.05
2018-07-21T11:53:50.650Z,1006.07
2018-07-21T11:54:59.301Z,1006.17
2018-07-21T11:56:07.955Z,1006.12
2018-07-21T11:57:16.608Z,1006.08
2018-07-21T11:58:25.267Z,1006.07
2018-07-21T11:59:33.922Z,1006.08
2018-07-21T12:00:42.580Z,1006.05
2018-07-21T12:01:51.260Z,1006.06
2018-07-21T12:02:59.901Z,1006.06
2018-07-21T12:04:08.814Z,1006.02
2018-07-21T12:05:17.487Z,1006.03
2018-07-21T12:06:26.519Z,1006
2018-07-21T12:07:35.181Z,1006.02
2018-07-21T12:08:43.832Z,1006
2018-07-21T12:09:52.482Z,1005.99
2018-07-21T12:11:01.145Z,1006.04
2018-07-21T12:12:09.792Z,1006.05
2018-07-21T12:13:18.484Z,1006.05
2018-07-21T12:14:27.108Z,1006.05
2018-07-21T12:15:35.767Z,1006.06
2018-07-21T12:16:44.412Z,1006.05
2018-07-21T12:17:53.342Z,1006.03
2018-07-21T12:19:02.252Z,1006.06
2018-07-21T12:20:10.958Z,1006.01
2018-07-21T12:21:19.559Z,1006.02
2018-07-21T12:22:28.221Z,1006.02
2018-07-21T12:23:36.875Z,1006.02
2018-07-21T12:24:45.534Z,1006.03
2018-07-21T12:25:54.179Z,1005.98
2018-07-21T12:27:02.839Z,1005.93
2018-07-21T12:28:11.766Z,1005.93
2018-07-21T12:29:20.422Z,1005.92
2018-07-21T12:30:29.077Z,1005.93
2018-07-21T12:31:38.247Z,1005.91
2018-07-21T12:32:46.904Z,1005.9
2018-07-21T12:33:55.556Z,1005.9
2018-07-21T12:35:04.491Z,1005.91
2018-07-21T12:36:13.143Z,1005.93
2018-07-21T12:37:21.795Z,1005.89
2018-07-21T12:38:30.447Z,1005.89
2018-07-21T12:39:39.112Z,1005.86
2018-07-21T12:40:47.760Z,1005.89
2018-07-21T12:41:56.418Z,1005.88
2018-07-21T12:43:05.070Z,1005.86
2018-07-21T12:44:14.005Z,1005.9
2018-07-21T12:45:22.660Z,1005.96
2018-07-21T12:46:31.316Z,1005.94
2018-07-21T12:47:39.970Z,1005.92
2018-07-21T12:48:48.622Z,1005.9
2018-07-21T12:49:57.287Z,1005.89
2018-07-21T12:51:05.939Z,1005.92
2018-07-21T12:52:14.865Z,1005.92
2018-07-21T12:53:23.511Z,1005.91
2018-07-21T12:54:32.449Z,1005.85
2018-07-21T12:55:41.098Z,1005.87
2018-07-21T12:56:49.802Z,1005.86
2018-07-21T12:57:58.411Z,1005.83
2018-07-21T12:59:07.075Z,1005.79
2018-07-21T13:00:15.722Z,1005.83
2018-07-21T13:01:24.646Z,1005.8
2018-07-21T13:02:33.298Z,1005.82
2018-07-21T13:03:41.952Z,1005.8
2018-07-21T13:04:50.613Z,1005.81
2018-07-21T13:05:59.263Z,1005.85
2018-07-21T13:07:07.917Z,1005.85
2018-07-21T13:08:16.841Z,1005.85
2018-07-21T13:09:25.489Z,1005.84
2018-07-21T13:10:34.155Z,1005.86
2018-07-21T13:11:42.796Z,1005.8
2018-07-21T13:12:51.460Z,1005.85
2018-07-21T13:14:00.113Z,1005.86
2018-07-21T13:15:09.038Z,1005.78
2018-07-21T13:16:17.683Z,1005.78
2018-07-21T13:17:26.341Z,1005.81
2018-07-21T13:18:34.993Z,1005.78
2018-07-21T13:19:43.712Z,1005.79
2018-07-21T13:20:52.307Z,1005.81
2018-07-21T13:22:00.968Z,1005.78
2018-07-21T13:23:09.627Z,1005.81
2018-07-21T13:24:18.288Z,1005.82
2018-07-21T13:25:26.946Z,1005.86
2018-07-21T13:26:35.592Z,1005.84
2018-07-21T13:27:44.529Z,1005.85
2018-07-21T13:28:53.449Z,1005.86
2018-07-21T13:30:02.117Z,1005.82
2018-07-21T13:31:11.027Z,1005.84
2018-07-21T13:32:19.692Z,1005.83
2018-07-21T13:33:28.345Z,1005.81
2018-07-21T13:34:37.284Z,1005.81
2018-07-21T13:35:45.929Z,1005.83
2018-07-21T13:36:54.597Z,1005.82
2018-07-21T13:38:03.579Z,1005.81
2018-07-21T13:39:12.244Z,1005.81
2018-07-21T13:40:20.899Z,1005.79
2018-07-21T13:41:29.551Z,1005.8
2018-07-21T13:42:38.205Z,1005.82
2018-07-21T13:43:46.860Z,1005.81
2018-07-21T13:44:55.526Z,1005.8
2018-07-21T13:46:04.180Z,1005.8
2018-07-21T13:47:12.845Z,1005.81
2018-07-21T13:48:21.755Z,1005.77
2018-07-21T13:49:30.423Z,1005.77
2018-07-21T13:50:39.075Z,1005.76
2018-07-21T13:51:47.737Z,1005.79
2018-07-21T13:52:56.647Z,1005.74
2018-07-21T13:54:05.398Z,1005.77
2018-07-21T13:55:13.967Z,1005.78